sensor_id;sensor_type;location;lat;lon;timestamp;temperature;humidity
21807;DHT22;11065;50.786;7.840;2022-08-19T00:00:28;21.40;48.50
21807;DHT22;11065;50.786;7.840;2022-08-19T00:02:55;21.40;48.50
21807;DHT22;11065;50.786;7.840;2022-08-19T00:05:22;21.40;48.50
21807;DHT22;11065;50.786;7.840;2022-08-19T00:07:50;21.40;48.60
21807;DHT22;11065;50.786;7.840;2022-08-19T00:10:18;21.30;48.60
21807;DHT22;11065;50.786;7.840;2022-08-19T00:12:45;21.30;48.70
21807;DHT22;11065;50.786;7.840;2022-08-19T00:15:15;21.30;48.70
21807;DHT22;11065;50.786;7.840;2022-08-19T00:17:43;21.30;48.80
21807;DHT22;11065;50.786;7.840;2022-08-19T00:20:13;21.30;48.80
21807;DHT22;11065;50.786;7.840;2022-08-19T00:22:44;21.30;48.90
21807;DHT22;11065;50.786;7.840;2022-08-19T00:38:36;21.10;49.20
21807;DHT22;11065;50.786;7.840;2022-08-19T00:41:05;21.00;48.80
21807;DHT22;11065;50.786;7.840;2022-08-19T00:43:32;21.00;48.90
21807;DHT22;11065;50.786;7.840;2022-08-19T00:45:59;21.00;49.10
21807;DHT22;11065;50.786;7.840;2022-08-19T00:48:27;21.00;49.20
21807;DHT22;11065;50.786;7.840;2022-08-19T00:50:55;20.90;49.30
21807;DHT22;11065;50.786;7.840;2022-08-19T00:53:24;20.90;49.50
21807;DHT22;11065;50.786;7.840;2022-08-19T00:55:56;20.90;49.70
21807;DHT22;11065;50.786;7.840;2022-08-19T00:58:27;20.90;49.70
21807;DHT22;11065;50.786;7.840;2022-08-19T01:00:55;20.80;49.70
21807;DHT22;11065;50.786;7.840;2022-08-19T01:03:23;20.80;49.70
21807;DHT22;11065;50.786;7.840;2022-08-19T01:05:51;20.80;49.80
21807;DHT22;11065;50.786;7.840;2022-08-19T01:08:19;20.80;49.80
21807;DHT22;11065;50.786;7.840;2022-08-19T01:10:55;20.80;49.80
21807;DHT22;11065;50.786;7.840;2022-08-19T01:13:27;20.80;50.10
21807;DHT22;11065;50.786;7.840;2022-08-19T01:16:12;20.70;50.00
21807;DHT22;11065;50.786;7.840;2022-08-19T01:18:41;20.70;49.90
21807;DHT22;11065;50.786;7.840;2022-08-19T01:23:55;20.70;50.60
21807;DHT22;11065;50.786;7.840;2022-08-19T01:26:24;20.70;50.00
21807;DHT22;11065;50.786;7.840;2022-08-19T01:28:53;20.70;50.10
21807;DHT22;11065;50.786;7.840;2022-08-19T01:31:29;20.60;50.10
21807;DHT22;11065;50.786;7.840;2022-08-19T01:34:00;20.70;50.20
21807;DHT22;11065;50.786;7.840;2022-08-19T01:36:34;20.60;50.20
21807;DHT22;11065;50.786;7.840;2022-08-19T01:39:05;20.60;50.50
21807;DHT22;11065;50.786;7.840;2022-08-19T01:41:32;20.60;50.40
21807;DHT22;11065;50.786;7.840;2022-08-19T01:43:59;20.60;50.90
21807;DHT22;11065;50.786;7.840;2022-08-19T01:46:47;20.60;50.50
21807;DHT22;11065;50.786;7.840;2022-08-19T01:49:15;20.50;50.50
21807;DHT22;11065;50.786;7.840;2022-08-19T01:51:43;20.50;50.50
21807;DHT22;11065;50.786;7.840;2022-08-19T01:54:12;20.50;50.60
21807;DHT22;11065;50.786;7.840;2022-08-19T01:56:50;20.40;50.60
21807;DHT22;11065;50.786;7.840;2022-08-19T01:59:20;20.40;50.60
21807;DHT22;11065;50.786;7.840;2022-08-19T02:01:48;20.40;50.70
21807;DHT22;11065;50.786;7.840;2022-08-19T02:04:14;20.40;50.60
21807;DHT22;11065;50.786;7.840;2022-08-19T02:06:42;20.40;50.70
21807;DHT22;11065;50.786;7.840;2022-08-19T02:09:09;20.30;50.70
21807;DHT22;11065;50.786;7.840;2022-08-19T02:11:37;20.30;50.80
21807;DHT22;11065;50.786;7.840;2022-08-19T02:14:06;20.30;50.80
21807;DHT22;11065;50.786;7.840;2022-08-19T02:16:35;20.30;50.90
21807;DHT22;11065;50.786;7.840;2022-08-19T02:19:03;20.30;50.90
21807;DHT22;11065;50.786;7.840;2022-08-19T02:21:30;20.30;50.90
21807;DHT22;11065;50.786;7.840;2022-08-19T02:23:57;20.20;50.90
21807;DHT22;11065;50.786;7.840;2022-08-19T02:26:25;20.20;51.00
21807;DHT22;11065;50.786;7.840;2022-08-19T02:28:54;20.20;51.00
21807;DHT22;11065;50.786;7.840;2022-08-19T02:31:23;20.10;50.90
21807;DHT22;11065;50.786;7.840;2022-08-19T02:33:52;20.20;51.00
21807;DHT22;11065;50.786;7.840;2022-08-19T02:36:23;20.10;51.00
21807;DHT22;11065;50.786;7.840;2022-08-19T02:38:51;20.10;51.20
21807;DHT22;11065;50.786;7.840;2022-08-19T02:41:25;20.10;51.10
21807;DHT22;11065;50.786;7.840;2022-08-19T02:43:57;20.00;51.10
21807;DHT22;11065;50.786;7.840;2022-08-19T02:46:46;20.00;51.10
21807;DHT22;11065;50.786;7.840;2022-08-19T02:49:14;20.00;51.00
21807;DHT22;11065;50.786;7.840;2022-08-19T02:51:44;20.00;51.10
21807;DHT22;11065;50.786;7.840;2022-08-19T02:54:13;20.00;51.20
21807;DHT22;11065;50.786;7.840;2022-08-19T02:56:41;19.90;51.20
21807;DHT22;11065;50.786;7.840;2022-08-19T02:59:08;19.90;51.30
21807;DHT22;11065;50.786;7.840;2022-08-19T03:01:38;19.90;51.40
21807;DHT22;11065;50.786;7.840;2022-08-19T03:04:09;19.80;51.50
21807;DHT22;11065;50.786;7.840;2022-08-19T03:06:38;19.90;51.60
21807;DHT22;11065;50.786;7.840;2022-08-19T03:09:05;19.70;51.50
21807;DHT22;11065;50.786;7.840;2022-08-19T03:11:32;19.70;51.50
21807;DHT22;11065;50.786;7.840;2022-08-19T03:14:00;19.70;51.50
21807;DHT22;11065;50.786;7.840;2022-08-19T03:16:29;19.60;51.50
21807;DHT22;11065;50.786;7.840;2022-08-19T03:19:00;19.60;51.60
21807;DHT22;11065;50.786;7.840;2022-08-19T03:21:30;19.60;51.60
21807;DHT22;11065;50.786;7.840;2022-08-19T03:24:00;19.60;51.60
21807;DHT22;11065;50.786;7.840;2022-08-19T03:26:28;19.50;51.60
21807;DHT22;11065;50.786;7.840;2022-08-19T03:28:55;19.50;51.60
21807;DHT22;11065;50.786;7.840;2022-08-19T03:31:25;19.50;51.60
21807;DHT22;11065;50.786;7.840;2022-08-19T03:34:19;19.40;51.60
21807;DHT22;11065;50.786;7.840;2022-08-19T03:36:47;19.40;51.80
21807;DHT22;11065;50.786;7.840;2022-08-19T03:39:15;19.40;51.80
21807;DHT22;11065;50.786;7.840;2022-08-19T03:41:44;19.40;51.90
21807;DHT22;11065;50.786;7.840;2022-08-19T03:44:15;19.30;52.00
21807;DHT22;11065;50.786;7.840;2022-08-19T03:46:54;19.30;52.00
21807;DHT22;11065;50.786;7.840;2022-08-19T03:49:24;19.20;52.10
21807;DHT22;11065;50.786;7.840;2022-08-19T03:51:56;19.20;52.00
21807;DHT22;11065;50.786;7.840;2022-08-19T03:54:24;19.20;52.00
21807;DHT22;11065;50.786;7.840;2022-08-19T03:56:53;19.20;52.10
21807;DHT22;11065;50.786;7.840;2022-08-19T03:59:27;19.20;52.10
21807;DHT22;11065;50.786;7.840;2022-08-19T04:01:56;19.10;52.20
21807;DHT22;11065;50.786;7.840;2022-08-19T04:04:24;19.10;52.10
21807;DHT22;11065;50.786;7.840;2022-08-19T04:06:55;19.10;52.20
21807;DHT22;11065;50.786;7.840;2022-08-19T04:09:22;19.00;52.20
21807;DHT22;11065;50.786;7.840;2022-08-19T04:11:52;19.00;52.20
21807;DHT22;11065;50.786;7.840;2022-08-19T04:14:27;19.00;52.20
21807;DHT22;11065;50.786;7.840;2022-08-19T04:16:58;19.00;52.30
21807;DHT22;11065;50.786;7.840;2022-08-19T04:19:25;19.00;52.20
21807;DHT22;11065;50.786;7.840;2022-08-19T04:21:53;18.90;52.20
21807;DHT22;11065;50.786;7.840;2022-08-19T04:24:21;18.90;52.30
21807;DHT22;11065;50.786;7.840;2022-08-19T04:26:49;18.90;52.30
21807;DHT22;11065;50.786;7.840;2022-08-19T04:29:24;18.90;52.30
21807;DHT22;11065;50.786;7.840;2022-08-19T04:31:53;18.90;52.50
21807;DHT22;11065;50.786;7.840;2022-08-19T04:34:23;18.90;52.40
21807;DHT22;11065;50.786;7.840;2022-08-19T04:36:52;18.80;52.50
21807;DHT22;11065;50.786;7.840;2022-08-19T04:39:23;18.80;52.50
21807;DHT22;11065;50.786;7.840;2022-08-19T04:42:11;18.80;52.50
21807;DHT22;11065;50.786;7.840;2022-08-19T04:44:57;18.80;52.50
21807;DHT22;11065;50.786;7.840;2022-08-19T04:47:25;18.80;52.50
21807;DHT22;11065;50.786;7.840;2022-08-19T04:50:13;18.80;52.50
21807;DHT22;11065;50.786;7.840;2022-08-19T04:52:43;18.80;53.00
21807;DHT22;11065;50.786;7.840;2022-08-19T04:55:11;18.70;52.60
21807;DHT22;11065;50.786;7.840;2022-08-19T04:57:39;18.70;52.70
21807;DHT22;11065;50.786;7.840;2022-08-19T05:00:08;18.70;52.70
21807;DHT22;11065;50.786;7.840;2022-08-19T05:02:36;18.70;52.80
21807;DHT22;11065;50.786;7.840;2022-08-19T05:05:03;18.80;52.90
21807;DHT22;11065;50.786;7.840;2022-08-19T05:07:30;18.80;53.00
21807;DHT22;11065;50.786;7.840;2022-08-19T05:09:57;18.80;53.10
21807;DHT22;11065;50.786;7.840;2022-08-19T05:12:25;18.70;53.10
21807;DHT22;11065;50.786;7.840;2022-08-19T05:14:57;18.80;53.20
21807;DHT22;11065;50.786;7.840;2022-08-19T05:17:25;18.80;53.30
21807;DHT22;11065;50.786;7.840;2022-08-19T05:19:56;18.80;53.30
21807;DHT22;11065;50.786;7.840;2022-08-19T05:22:43;18.90;53.40
21807;DHT22;11065;50.786;7.840;2022-08-19T05:25:14;18.90;53.40
21807;DHT22;11065;50.786;7.840;2022-08-19T05:27:42;18.90;53.50
21807;DHT22;11065;50.786;7.840;2022-08-19T05:30:10;19.00;54.00
21807;DHT22;11065;50.786;7.840;2022-08-19T05:32:38;19.00;53.60
21807;DHT22;11065;50.786;7.840;2022-08-19T05:35:05;19.00;53.60
21807;DHT22;11065;50.786;7.840;2022-08-19T05:37:32;19.00;54.10
21807;DHT22;11065;50.786;7.840;2022-08-19T05:39:59;19.10;53.60
21807;DHT22;11065;50.786;7.840;2022-08-19T05:42:26;19.10;53.70
21807;DHT22;11065;50.786;7.840;2022-08-19T05:44:53;19.20;53.80
21807;DHT22;11065;50.786;7.840;2022-08-19T05:47:20;19.20;53.90
21807;DHT22;11065;50.786;7.840;2022-08-19T05:49:48;19.20;53.90
21807;DHT22;11065;50.786;7.840;2022-08-19T05:52:16;19.20;53.90
21807;DHT22;11065;50.786;7.840;2022-08-19T05:54:45;19.20;53.90
21807;DHT22;11065;50.786;7.840;2022-08-19T05:57:18;19.20;54.00
21807;DHT22;11065;50.786;7.840;2022-08-19T05:59:45;19.20;54.00
21807;DHT22;11065;50.786;7.840;2022-08-19T06:02:14;19.20;53.90
21807;DHT22;11065;50.786;7.840;2022-08-19T06:04:41;19.20;53.90
21807;DHT22;11065;50.786;7.840;2022-08-19T06:07:09;19.20;54.00
21807;DHT22;11065;50.786;7.840;2022-08-19T06:09:39;19.30;54.10
21807;DHT22;11065;50.786;7.840;2022-08-19T06:12:06;19.30;54.10
21807;DHT22;11065;50.786;7.840;2022-08-19T06:14:34;19.30;54.20
21807;DHT22;11065;50.786;7.840;2022-08-19T06:17:07;19.40;54.30
21807;DHT22;11065;50.786;7.840;2022-08-19T06:19:35;19.40;54.30
21807;DHT22;11065;50.786;7.840;2022-08-19T06:22:07;19.40;54.30
21807;DHT22;11065;50.786;7.840;2022-08-19T06:24:34;19.40;54.30
21807;DHT22;11065;50.786;7.840;2022-08-19T06:27:03;19.50;54.50
21807;DHT22;11065;50.786;7.840;2022-08-19T06:29:32;19.50;54.60
21807;DHT22;11065;50.786;7.840;2022-08-19T06:32:01;19.60;54.70
21807;DHT22;11065;50.786;7.840;2022-08-19T06:34:31;19.60;54.80
21807;DHT22;11065;50.786;7.840;2022-08-19T06:36:59;19.70;54.90
21807;DHT22;11065;50.786;7.840;2022-08-19T06:39:30;19.70;54.80
21807;DHT22;11065;50.786;7.840;2022-08-19T06:41:59;19.80;54.80
21807;DHT22;11065;50.786;7.840;2022-08-19T06:44:30;19.90;54.80
21807;DHT22;11065;50.786;7.840;2022-08-19T06:47:10;20.00;54.80
21807;DHT22;11065;50.786;7.840;2022-08-19T06:49:48;20.00;54.80
21807;DHT22;11065;50.786;7.840;2022-08-19T06:52:15;20.10;54.80
21807;DHT22;11065;50.786;7.840;2022-08-19T06:54:42;20.20;55.10
21807;DHT22;11065;50.786;7.840;2022-08-19T06:57:21;20.30;54.80
21807;DHT22;11065;50.786;7.840;2022-08-19T06:59:48;20.40;54.80
21807;DHT22;11065;50.786;7.840;2022-08-19T07:02:14;20.40;54.70
21807;DHT22;11065;50.786;7.840;2022-08-19T07:04:46;20.50;54.70
21807;DHT22;11065;50.786;7.840;2022-08-19T07:07:20;20.60;54.70
21807;DHT22;11065;50.786;7.840;2022-08-19T07:09:50;20.60;54.70
21807;DHT22;11065;50.786;7.840;2022-08-19T07:12:31;20.70;54.70
21807;DHT22;11065;50.786;7.840;2022-08-19T07:15:04;20.80;54.80
21807;DHT22;11065;50.786;7.840;2022-08-19T07:17:31;20.90;54.80
21807;DHT22;11065;50.786;7.840;2022-08-19T07:20:01;21.00;54.70
21807;DHT22;11065;50.786;7.840;2022-08-19T07:22:39;21.10;54.60
21807;DHT22;11065;50.786;7.840;2022-08-19T07:25:08;21.20;54.60
21807;DHT22;11065;50.786;7.840;2022-08-19T07:27:35;21.30;54.60
21807;DHT22;11065;50.786;7.840;2022-08-19T07:30:06;21.30;54.50
21807;DHT22;11065;50.786;7.840;2022-08-19T07:32:38;21.40;54.40
21807;DHT22;11065;50.786;7.840;2022-08-19T07:35:05;21.40;54.40
21807;DHT22;11065;50.786;7.840;2022-08-19T07:37:33;21.50;54.50
21807;DHT22;11065;50.786;7.840;2022-08-19T07:40:04;21.50;54.60
21807;DHT22;11065;50.786;7.840;2022-08-19T07:42:31;21.50;54.70
21807;DHT22;11065;50.786;7.840;2022-08-19T07:44:58;21.70;54.70
21807;DHT22;11065;50.786;7.840;2022-08-19T07:47:25;21.70;54.80
21807;DHT22;11065;50.786;7.840;2022-08-19T07:50:14;21.90;54.80
21807;DHT22;11065;50.786;7.840;2022-08-19T07:52:40;22.00;54.80
21807;DHT22;11065;50.786;7.840;2022-08-19T07:55:21;22.00;54.70
21807;DHT22;11065;50.786;7.840;2022-08-19T07:58:10;22.10;54.80
21807;DHT22;11065;50.786;7.840;2022-08-19T08:00:37;22.20;54.80
21807;DHT22;11065;50.786;7.840;2022-08-19T08:03:04;22.30;54.90
21807;DHT22;11065;50.786;7.840;2022-08-19T08:05:31;22.40;54.80
21807;DHT22;11065;50.786;7.840;2022-08-19T08:08:16;22.50;54.70
21807;DHT22;11065;50.786;7.840;2022-08-19T08:11:02;22.60;54.60
21807;DHT22;11065;50.786;7.840;2022-08-19T08:13:34;22.80;54.60
21807;DHT22;11065;50.786;7.840;2022-08-19T08:16:02;22.80;54.40
21807;DHT22;11065;50.786;7.840;2022-08-19T08:18:29;22.90;54.40
21807;DHT22;11065;50.786;7.840;2022-08-19T08:20:56;23.10;54.50
21807;DHT22;11065;50.786;7.840;2022-08-19T08:23:24;23.20;54.60
21807;DHT22;11065;50.786;7.840;2022-08-19T08:25:57;23.30;55.00
21807;DHT22;11065;50.786;7.840;2022-08-19T08:28:26;23.60;55.70
21807;DHT22;11065;50.786;7.840;2022-08-19T08:30:56;24.00;56.20
21807;DHT22;11065;50.786;7.840;2022-08-19T08:33:25;24.60;56.90
21807;DHT22;11065;50.786;7.840;2022-08-19T08:36:07;25.30;57.40
21807;DHT22;11065;50.786;7.840;2022-08-19T08:38:35;26.00;56.80
21807;DHT22;11065;50.786;7.840;2022-08-19T08:44:22;27.60;54.80
21807;DHT22;11065;50.786;7.840;2022-08-19T08:46:56;28.50;56.10
21807;DHT22;11065;50.786;7.840;2022-08-19T08:49:39;29.20;54.90
21807;DHT22;11065;50.786;7.840;2022-08-19T08:52:18;30.00;53.40
21807;DHT22;11065;50.786;7.840;2022-08-19T08:54:48;30.70;53.70
21807;DHT22;11065;50.786;7.840;2022-08-19T09:00:26;32.00;49.10
21807;DHT22;11065;50.786;7.840;2022-08-19T09:02:55;32.50;49.90
21807;DHT22;11065;50.786;7.840;2022-08-19T09:05:23;33.00;50.10
21807;DHT22;11065;50.786;7.840;2022-08-19T09:08:32;33.50;49.40
21807;DHT22;11065;50.786;7.840;2022-08-19T09:11:08;34.00;47.00
21807;DHT22;11065;50.786;7.840;2022-08-19T09:13:42;34.50;47.70
21807;DHT22;11065;50.786;7.840;2022-08-19T09:16:16;34.90;47.60
21807;DHT22;11065;50.786;7.840;2022-08-19T09:18:52;35.20;44.50
21807;DHT22;11065;50.786;7.840;2022-08-19T09:21:21;35.20;43.00
21807;DHT22;11065;50.786;7.840;2022-08-19T09:23:56;35.00;42.60
21807;DHT22;11065;50.786;7.840;2022-08-19T09:26:26;34.80;42.50
21807;DHT22;11065;50.786;7.840;2022-08-19T09:29:13;34.90;43.10
21807;DHT22;11065;50.786;7.840;2022-08-19T09:31:39;35.10;44.10
21807;DHT22;11065;50.786;7.840;2022-08-19T09:34:07;35.40;43.20
21807;DHT22;11065;50.786;7.840;2022-08-19T09:36:47;35.70;43.40
21807;DHT22;11065;50.786;7.840;2022-08-19T09:39:18;36.10;41.90
21807;DHT22;11065;50.786;7.840;2022-08-19T09:41:46;36.40;40.70
21807;DHT22;11065;50.786;7.840;2022-08-19T09:44:15;36.60;40.80
21807;DHT22;11065;50.786;7.840;2022-08-19T09:46:43;36.80;40.40
21807;DHT22;11065;50.786;7.840;2022-08-19T09:49:14;37.10;40.30
21807;DHT22;11065;50.786;7.840;2022-08-19T09:51:44;37.40;39.70
21807;DHT22;11065;50.786;7.840;2022-08-19T09:54:17;37.80;39.60
21807;DHT22;11065;50.786;7.840;2022-08-19T09:56:54;38.10;39.30
21807;DHT22;11065;50.786;7.840;2022-08-19T09:59:22;38.50;38.60
21807;DHT22;11065;50.786;7.840;2022-08-19T10:01:49;38.80;38.20
21807;DHT22;11065;50.786;7.840;2022-08-19T10:04:18;39.20;38.00
21807;DHT22;11065;50.786;7.840;2022-08-19T10:06:50;39.50;37.10
21807;DHT22;11065;50.786;7.840;2022-08-19T10:09:21;39.60;36.30
21807;DHT22;11065;50.786;7.840;2022-08-19T10:12:01;39.50;34.90
21807;DHT22;11065;50.786;7.840;2022-08-19T10:14:30;39.10;34.50
21807;DHT22;11065;50.786;7.840;2022-08-19T10:16:57;38.70;34.50
21807;DHT22;11065;50.786;7.840;2022-08-19T10:19:25;38.60;35.00
21807;DHT22;11065;50.786;7.840;2022-08-19T10:21:53;38.60;34.90
21807;DHT22;11065;50.786;7.840;2022-08-19T10:24:26;38.70;35.20
21807;DHT22;11065;50.786;7.840;2022-08-19T10:26:54;38.80;35.30
21807;DHT22;11065;50.786;7.840;2022-08-19T10:29:26;39.10;35.50
21807;DHT22;11065;50.786;7.840;2022-08-19T10:35:20;39.80;34.40
21807;DHT22;11065;50.786;7.840;2022-08-19T10:37:48;40.20;34.90
21807;DHT22;11065;50.786;7.840;2022-08-19T10:44:36;40.80;32.90
21807;DHT22;11065;50.786;7.840;2022-08-19T10:47:03;41.20;33.80
21807;DHT22;11065;50.786;7.840;2022-08-19T10:49:43;41.50;32.50
21807;DHT22;11065;50.786;7.840;2022-08-19T10:52:29;41.60;32.30
21807;DHT22;11065;50.786;7.840;2022-08-19T10:55:06;41.70;31.90
21807;DHT22;11065;50.786;7.840;2022-08-19T10:57:55;41.70;31.50
21807;DHT22;11065;50.786;7.840;2022-08-19T11:00:32;41.80;31.50
21807;DHT22;11065;50.786;7.840;2022-08-19T11:02:59;41.90;31.30
21807;DHT22;11065;50.786;7.840;2022-08-19T11:05:26;41.90;30.80
21807;DHT22;11065;50.786;7.840;2022-08-19T11:07:52;42.10;30.60
21807;DHT22;11065;50.786;7.840;2022-08-19T11:10:20;42.10;30.30
21807;DHT22;11065;50.786;7.840;2022-08-19T11:12:48;42.10;30.10
21807;DHT22;11065;50.786;7.840;2022-08-19T11:15:15;42.20;30.00
21807;DHT22;11065;50.786;7.840;2022-08-19T11:17:42;42.20;29.90
21807;DHT22;11065;50.786;7.840;2022-08-19T11:20:11;42.20;29.70
21807;DHT22;11065;50.786;7.840;2022-08-19T11:22:39;42.20;29.50
21807;DHT22;11065;50.786;7.840;2022-08-19T11:25:10;42.20;29.40
21807;DHT22;11065;50.786;7.840;2022-08-19T11:27:39;42.10;28.90
21807;DHT22;11065;50.786;7.840;2022-08-19T11:30:09;41.70;28.50
21807;DHT22;11065;50.786;7.840;2022-08-19T11:32:40;41.40;28.60
21807;DHT22;11065;50.786;7.840;2022-08-19T11:35:14;41.20;28.80
21807;DHT22;11065;50.786;7.840;2022-08-19T11:37:42;41.00;28.70
21807;DHT22;11065;50.786;7.840;2022-08-19T11:40:09;41.00;29.00
21807;DHT22;11065;50.786;7.840;2022-08-19T11:42:36;41.00;29.00
21807;DHT22;11065;50.786;7.840;2022-08-19T11:45:26;41.00;28.70
21807;DHT22;11065;50.786;7.840;2022-08-19T11:47:54;41.00;28.60
21807;DHT22;11065;50.786;7.840;2022-08-19T11:50:22;41.20;28.20
21807;DHT22;11065;50.786;7.840;2022-08-19T11:52:52;41.20;28.60
21807;DHT22;11065;50.786;7.840;2022-08-19T11:55:20;41.20;29.20
21807;DHT22;11065;50.786;7.840;2022-08-19T11:57:47;41.40;28.80
21807;DHT22;11065;50.786;7.840;2022-08-19T12:00:15;41.50;28.70
21807;DHT22;11065;50.786;7.840;2022-08-19T12:02:42;41.50;28.00
21807;DHT22;11065;50.786;7.840;2022-08-19T12:05:09;41.40;27.90
21807;DHT22;11065;50.786;7.840;2022-08-19T12:07:39;41.20;27.80
21807;DHT22;11065;50.786;7.840;2022-08-19T12:10:07;41.00;28.00
21807;DHT22;11065;50.786;7.840;2022-08-19T12:12:36;40.90;28.00
21807;DHT22;11065;50.786;7.840;2022-08-19T12:15:07;40.70;28.20
21807;DHT22;11065;50.786;7.840;2022-08-19T12:17:34;40.50;27.70
21807;DHT22;11065;50.786;7.840;2022-08-19T12:20:01;40.20;28.00
21807;DHT22;11065;50.786;7.840;2022-08-19T12:22:28;40.20;28.00
21807;DHT22;11065;50.786;7.840;2022-08-19T12:24:55;40.00;27.70
21807;DHT22;11065;50.786;7.840;2022-08-19T12:27:22;39.80;27.70
21807;DHT22;11065;50.786;7.840;2022-08-19T12:30:09;39.70;27.70
21807;DHT22;11065;50.786;7.840;2022-08-19T12:32:38;39.40;27.60
21807;DHT22;11065;50.786;7.840;2022-08-19T12:35:06;39.10;27.50
21807;DHT22;11065;50.786;7.840;2022-08-19T12:37:34;38.80;27.50
21807;DHT22;11065;50.786;7.840;2022-08-19T12:40:02;38.50;27.70
21807;DHT22;11065;50.786;7.840;2022-08-19T12:42:29;38.30;27.80
21807;DHT22;11065;50.786;7.840;2022-08-19T12:44:56;38.30;28.20
21807;DHT22;11065;50.786;7.840;2022-08-19T12:47:24;38.40;28.20
21807;DHT22;11065;50.786;7.840;2022-08-19T12:49:52;38.60;28.00
21807;DHT22;11065;50.786;7.840;2022-08-19T12:52:26;38.80;28.30
21807;DHT22;11065;50.786;7.840;2022-08-19T12:54:55;39.00;27.80
21807;DHT22;11065;50.786;7.840;2022-08-19T12:57:24;39.20;27.90
21807;DHT22;11065;50.786;7.840;2022-08-19T12:59:59;39.40;27.80
21807;DHT22;11065;50.786;7.840;2022-08-19T13:02:26;39.60;27.80
21807;DHT22;11065;50.786;7.840;2022-08-19T13:04:53;39.60;27.60
21807;DHT22;11065;50.786;7.840;2022-08-19T13:07:20;39.70;27.70
21807;DHT22;11065;50.786;7.840;2022-08-19T13:09:47;39.80;27.80
21807;DHT22;11065;50.786;7.840;2022-08-19T13:12:14;39.80;27.60
21807;DHT22;11065;50.786;7.840;2022-08-19T13:14:41;39.90;27.80
21807;DHT22;11065;50.786;7.840;2022-08-19T13:17:08;39.90;27.70
21807;DHT22;11065;50.786;7.840;2022-08-19T13:19:38;40.00;27.70
21807;DHT22;11065;50.786;7.840;2022-08-19T13:22:06;40.10;27.60
21807;DHT22;11065;50.786;7.840;2022-08-19T13:24:40;40.20;27.60
21807;DHT22;11065;50.786;7.840;2022-08-19T13:27:13;40.20;27.40
21807;DHT22;11065;50.786;7.840;2022-08-19T13:29:41;40.20;27.10
21807;DHT22;11065;50.786;7.840;2022-08-19T13:32:26;40.20;27.10
21807;DHT22;11065;50.786;7.840;2022-08-19T13:35:11;40.30;27.00
21807;DHT22;11065;50.786;7.840;2022-08-19T13:37:43;40.30;27.10
21807;DHT22;11065;50.786;7.840;2022-08-19T13:40:16;40.40;27.30
21807;DHT22;11065;50.786;7.840;2022-08-19T13:42:47;40.40;27.30
21807;DHT22;11065;50.786;7.840;2022-08-19T13:45:20;40.50;27.20
21807;DHT22;11065;50.786;7.840;2022-08-19T13:47:49;40.50;27.10
21807;DHT22;11065;50.786;7.840;2022-08-19T13:50:24;40.50;27.10
21807;DHT22;11065;50.786;7.840;2022-08-19T13:52:53;40.50;27.00
21807;DHT22;11065;50.786;7.840;2022-08-19T13:55:21;40.40;26.80
21807;DHT22;11065;50.786;7.840;2022-08-19T13:57:57;40.20;26.50
21807;DHT22;11065;50.786;7.840;2022-08-19T14:00:26;40.10;26.60
21807;DHT22;11065;50.786;7.840;2022-08-19T14:02:55;40.00;26.70
21807;DHT22;11065;50.786;7.840;2022-08-19T14:05:24;40.00;26.60
21807;DHT22;11065;50.786;7.840;2022-08-19T14:07:52;39.90;26.40
21807;DHT22;11065;50.786;7.840;2022-08-19T14:10:21;39.90;26.30
21807;DHT22;11065;50.786;7.840;2022-08-19T14:12:53;39.90;26.30
21807;DHT22;11065;50.786;7.840;2022-08-19T14:15:22;39.90;26.20
21807;DHT22;11065;50.786;7.840;2022-08-19T14:17:50;39.90;26.20
21807;DHT22;11065;50.786;7.840;2022-08-19T14:20:17;39.90;26.20
21807;DHT22;11065;50.786;7.840;2022-08-19T14:22:45;39.90;26.20
21807;DHT22;11065;50.786;7.840;2022-08-19T14:25:18;39.90;26.40
21807;DHT22;11065;50.786;7.840;2022-08-19T14:27:45;39.90;26.20
21807;DHT22;11065;50.786;7.840;2022-08-19T14:30:16;39.80;26.30
21807;DHT22;11065;50.786;7.840;2022-08-19T14:32:43;39.80;26.30
21807;DHT22;11065;50.786;7.840;2022-08-19T14:35:11;39.70;26.20
21807;DHT22;11065;50.786;7.840;2022-08-19T14:37:39;39.70;26.30
21807;DHT22;11065;50.786;7.840;2022-08-19T14:40:14;39.60;26.40
21807;DHT22;11065;50.786;7.840;2022-08-19T14:42:41;39.40;26.50
21807;DHT22;11065;50.786;7.840;2022-08-19T14:45:10;39.40;26.40
21807;DHT22;11065;50.786;7.840;2022-08-19T14:47:37;39.30;26.50
21807;DHT22;11065;50.786;7.840;2022-08-19T14:50:07;39.30;26.50
21807;DHT22;11065;50.786;7.840;2022-08-19T14:52:44;39.20;26.60
21807;DHT22;11065;50.786;7.840;2022-08-19T14:55:11;39.10;26.60
21807;DHT22;11065;50.786;7.840;2022-08-19T14:57:39;39.00;26.60
21807;DHT22;11065;50.786;7.840;2022-08-19T15:00:07;38.90;26.50
21807;DHT22;11065;50.786;7.840;2022-08-19T15:02:38;38.80;26.60
21807;DHT22;11065;50.786;7.840;2022-08-19T15:05:06;38.70;26.60
21807;DHT22;11065;50.786;7.840;2022-08-19T15:07:33;38.50;26.60
21807;DHT22;11065;50.786;7.840;2022-08-19T15:09:59;38.30;26.60
21807;DHT22;11065;50.786;7.840;2022-08-19T15:12:26;38.20;26.70
21807;DHT22;11065;50.786;7.840;2022-08-19T15:14:53;38.00;26.70
21807;DHT22;11065;50.786;7.840;2022-08-19T15:17:23;38.00;26.80
21807;DHT22;11065;50.786;7.840;2022-08-19T15:20:13;37.90;26.70
21807;DHT22;11065;50.786;7.840;2022-08-19T15:22:40;37.80;26.80
21807;DHT22;11065;50.786;7.840;2022-08-19T15:25:10;37.60;26.70
21807;DHT22;11065;50.786;7.840;2022-08-19T15:27:38;37.50;26.90
21807;DHT22;11065;50.786;7.840;2022-08-19T15:30:07;37.30;26.80
21807;DHT22;11065;50.786;7.840;2022-08-19T15:32:35;37.20;27.00
21807;DHT22;11065;50.786;7.840;2022-08-19T15:35:04;37.00;27.00
21807;DHT22;11065;50.786;7.840;2022-08-19T15:37:31;37.00;27.10
21807;DHT22;11065;50.786;7.840;2022-08-19T15:40:05;37.00;27.10
21807;DHT22;11065;50.786;7.840;2022-08-19T15:42:35;36.90;27.20
21807;DHT22;11065;50.786;7.840;2022-08-19T15:45:06;36.90;27.10
21807;DHT22;11065;50.786;7.840;2022-08-19T15:47:33;36.80;27.10
21807;DHT22;11065;50.786;7.840;2022-08-19T15:50:06;36.70;27.00
21807;DHT22;11065;50.786;7.840;2022-08-19T15:52:43;36.70;27.00
21807;DHT22;11065;50.786;7.840;2022-08-19T15:55:20;36.50;26.90
21807;DHT22;11065;50.786;7.840;2022-08-19T15:58:01;36.40;26.90
21807;DHT22;11065;50.786;7.840;2022-08-19T16:00:56;36.30;26.90
21807;DHT22;11065;50.786;7.840;2022-08-19T16:03:43;36.10;26.90
21807;DHT22;11065;50.786;7.840;2022-08-19T16:06:30;36.00;27.00
21807;DHT22;11065;50.786;7.840;2022-08-19T16:08:59;35.90;27.00
21807;DHT22;11065;50.786;7.840;2022-08-19T16:11:30;35.80;27.10
21807;DHT22;11065;50.786;7.840;2022-08-19T16:13:59;35.70;27.10
21807;DHT22;11065;50.786;7.840;2022-08-19T16:16:31;35.60;27.20
21807;DHT22;11065;50.786;7.840;2022-08-19T16:19:02;35.50;27.20
21807;DHT22;11065;50.786;7.840;2022-08-19T16:21:29;35.30;27.20